Main page
METAR-TAF:

METAR-TAF

Airports :

Capital City Airport

Harrisburg, Pennsylvania, United States

latitude: 40-13-02N, longitude: 076-51-05W, elevation: 348 ft

Current weather observation

The report was made 23 minutes ago, at 10:56 UTC
Wind 7 mph from the North
Temperature 34°F
Humidity 31%
Pressure 30.46 in. Hg
Visibility: 10 miles
Clear sky

METAR: KCXY 201056Z AUTO 35006KT 10SM CLR 01/M14 A3046 RMK AO2 SLP319 T00061144

Time: 06:19 (11:19 UTC)


TAF: missing

Weather observations and forecasts of more than 4000 airports (METAR and TAF reports).

The available stations are represented by yellow and red dots on the map.

Hover mouse over dot to see the name of the station.

Then click to see weather observations and forecasts.

To change the map : click on the green buttons with a black cross to zoom in, on the green button with a dash to zoom out, or on the green arrows for adjacent maps.


METAR-TAF: